Terminal Aerodrome Forecast
Issued by NWS

Home | Current Version | Previous Version | Text Only | Print | Product List | Glossary On
Versions: 1 2 3 4 5 6 7 8 9 10 11 12 13 14 15 16 17
000
FTUS45 KRIW 300500
TAFRKS
TAF
KRKS 300539Z 3006/3106 07006KT P6SM SCT110 OVC200
     FM300900 08005KT P6SM VCSH BKN070
     FM302000 07010KT P6SM VCSH SCT030 OVC050
     FM310300 06014KT 5SM -SHSN OVC025=

USA.gov is the U.S. government's official web portal to all federal, state and local government web resources and services.